sensor_id;sensor_type;location;lat;lon;timestamp;temperature;humidity
44647;DHT22;56315;-33.902;151.160;2023-04-24T00:01:45;33.40;95.10
44647;DHT22;56315;-33.902;151.160;2023-04-24T00:04:12;34.20;94.10
44647;DHT22;56315;-33.902;151.160;2023-04-24T00:06:43;34.70;93.60
44647;DHT22;56315;-33.902;151.160;2023-04-24T00:09:10;34.90;93.00
44647;DHT22;56315;-33.902;151.160;2023-04-24T00:11:38;34.80;92.90
44647;DHT22;56315;-33.902;151.160;2023-04-24T00:14:05;34.80;93.30
44647;DHT22;56315;-33.902;151.160;2023-04-24T00:16:32;34.60;92.60
44647;DHT22;56315;-33.902;151.160;2023-04-24T00:18:59;34.00;93.00
44647;DHT22;56315;-33.902;151.160;2023-04-24T00:21:27;33.70;93.80
44647;DHT22;56315;-33.902;151.160;2023-04-24T00:23:54;33.70;93.50
44647;DHT22;56315;-33.902;151.160;2023-04-24T00:26:21;33.30;94.00
44647;DHT22;56315;-33.902;151.160;2023-04-24T00:28:49;33.00;93.90
44647;DHT22;56315;-33.902;151.160;2023-04-24T00:31:16;32.70;94.60
44647;DHT22;56315;-33.902;151.160;2023-04-24T00:33:44;32.50;93.60
44647;DHT22;56315;-33.902;151.160;2023-04-24T00:36:11;32.10;94.00
44647;DHT22;56315;-33.902;151.160;2023-04-24T00:38:38;31.90;94.40
44647;DHT22;56315;-33.902;151.160;2023-04-24T00:41:06;32.00;94.90
44647;DHT22;56315;-33.902;151.160;2023-04-24T00:43:33;32.40;94.30
44647;DHT22;56315;-33.902;151.160;2023-04-24T00:46:01;32.70;93.70
44647;DHT22;56315;-33.902;151.160;2023-04-24T00:48:28;32.80;93.80
44647;DHT22;56315;-33.902;151.160;2023-04-24T00:50:56;33.30;93.70
44647;DHT22;56315;-33.902;151.160;2023-04-24T00:53:25;33.90;93.10
44647;DHT22;56315;-33.902;151.160;2023-04-24T00:55:52;34.40;93.30
44647;DHT22;56315;-33.902;151.160;2023-04-24T00:58:19;34.70;92.50
44647;DHT22;56315;-33.902;151.160;2023-04-24T01:00:49;34.80;92.60
44647;DHT22;56315;-33.902;151.160;2023-04-24T01:03:24;35.00;92.40
44647;DHT22;56315;-33.902;151.160;2023-04-24T01:05:53;35.20;92.30
44647;DHT22;56315;-33.902;151.160;2023-04-24T01:08:24;34.80;92.50
44647;DHT22;56315;-33.902;151.160;2023-04-24T01:10:54;34.60;91.80
44647;DHT22;56315;-33.902;151.160;2023-04-24T01:13:22;34.20;91.60
44647;DHT22;56315;-33.902;151.160;2023-04-24T01:15:50;34.00;92.10
44647;DHT22;56315;-33.902;151.160;2023-04-24T01:18:17;33.50;92.50
44647;DHT22;56315;-33.902;151.160;2023-04-24T01:20:45;32.70;92.90
44647;DHT22;56315;-33.902;151.160;2023-04-24T01:23:13;32.00;94.50
44647;DHT22;56315;-33.902;151.160;2023-04-24T01:25:40;32.30;93.30
44647;DHT22;56315;-33.902;151.160;2023-04-24T01:28:08;32.30;94.10
44647;DHT22;56315;-33.902;151.160;2023-04-24T01:30:35;32.60;94.30
44647;DHT22;56315;-33.902;151.160;2023-04-24T01:33:03;32.90;93.40
44647;DHT22;56315;-33.902;151.160;2023-04-24T01:35:30;33.40;93.10
44647;DHT22;56315;-33.902;151.160;2023-04-24T01:37:58;33.80;93.30
44647;DHT22;56315;-33.902;151.160;2023-04-24T01:40:25;34.30;93.10
44647;DHT22;56315;-33.902;151.160;2023-04-24T01:42:53;35.00;93.10
44647;DHT22;56315;-33.902;151.160;2023-04-24T01:45:20;35.80;92.20
44647;DHT22;56315;-33.902;151.160;2023-04-24T01:47:47;36.30;91.70
44647;DHT22;56315;-33.902;151.160;2023-04-24T01:50:15;36.00;91.30
44647;DHT22;56315;-33.902;151.160;2023-04-24T01:52:42;35.40;92.30
44647;DHT22;56315;-33.902;151.160;2023-04-24T01:55:10;34.80;91.70
44647;DHT22;56315;-33.902;151.160;2023-04-24T01:57:37;33.80;92.60
44647;DHT22;56315;-33.902;151.160;2023-04-24T02:00:05;33.10;94.00
44647;DHT22;56315;-33.902;151.160;2023-04-24T02:02:33;32.20;95.20
44647;DHT22;56315;-33.902;151.160;2023-04-24T02:05:01;31.40;96.70
44647;DHT22;56315;-33.902;151.160;2023-04-24T02:07:29;30.50;97.10
44647;DHT22;56315;-33.902;151.160;2023-04-24T02:09:56;29.90;98.10
44647;DHT22;56315;-33.902;151.160;2023-04-24T02:12:23;29.40;98.50
44647;DHT22;56315;-33.902;151.160;2023-04-24T02:14:50;28.80;99.50
44647;DHT22;56315;-33.902;151.160;2023-04-24T02:17:18;28.20;99.70
44647;DHT22;56315;-33.902;151.160;2023-04-24T02:19:45;27.50;99.90
44647;DHT22;56315;-33.902;151.160;2023-04-24T02:22:13;27.10;99.90
44647;DHT22;56315;-33.902;151.160;2023-04-24T02:24:40;26.80;99.90
44647;DHT22;56315;-33.902;151.160;2023-04-24T02:27:07;26.70;99.90
44647;DHT22;56315;-33.902;151.160;2023-04-24T02:29:35;26.40;99.90
44647;DHT22;56315;-33.902;151.160;2023-04-24T02:32:02;26.10;99.90
44647;DHT22;56315;-33.902;151.160;2023-04-24T02:34:29;25.90;99.90
44647;DHT22;56315;-33.902;151.160;2023-04-24T02:36:57;25.70;99.90
44647;DHT22;56315;-33.902;151.160;2023-04-24T02:39:24;25.60;99.90
44647;DHT22;56315;-33.902;151.160;2023-04-24T02:41:52;25.50;99.90
44647;DHT22;56315;-33.902;151.160;2023-04-24T02:44:19;25.30;99.90
44647;DHT22;56315;-33.902;151.160;2023-04-24T02:46:48;25.20;99.90
44647;DHT22;56315;-33.902;151.160;2023-04-24T02:49:15;25.10;99.90
44647;DHT22;56315;-33.902;151.160;2023-04-24T02:51:42;25.00;99.90
44647;DHT22;56315;-33.902;151.160;2023-04-24T02:54:09;25.10;99.90
44647;DHT22;56315;-33.902;151.160;2023-04-24T02:56:37;25.00;99.90
44647;DHT22;56315;-33.902;151.160;2023-04-24T02:59:04;25.00;99.90
44647;DHT22;56315;-33.902;151.160;2023-04-24T03:01:31;24.90;99.90
44647;DHT22;56315;-33.902;151.160;2023-04-24T03:03:59;24.90;99.90
44647;DHT22;56315;-33.902;151.160;2023-04-24T03:06:26;24.80;99.90
44647;DHT22;56315;-33.902;151.160;2023-04-24T03:08:53;24.80;99.90
44647;DHT22;56315;-33.902;151.160;2023-04-24T03:11:21;24.90;99.90
44647;DHT22;56315;-33.902;151.160;2023-04-24T03:13:48;25.00;99.90
44647;DHT22;56315;-33.902;151.160;2023-04-24T03:16:15;25.10;99.90
44647;DHT22;56315;-33.902;151.160;2023-04-24T03:18:42;25.20;99.90
44647;DHT22;56315;-33.902;151.160;2023-04-24T03:21:10;25.40;99.90
44647;DHT22;56315;-33.902;151.160;2023-04-24T03:23:38;25.40;99.90
44647;DHT22;56315;-33.902;151.160;2023-04-24T03:26:07;25.50;99.90
44647;DHT22;56315;-33.902;151.160;2023-04-24T03:28:35;25.50;99.90
44647;DHT22;56315;-33.902;151.160;2023-04-24T03:31:04;25.50;99.90
44647;DHT22;56315;-33.902;151.160;2023-04-24T03:33:31;25.70;99.90
44647;DHT22;56315;-33.902;151.160;2023-04-24T03:35:58;25.70;99.90
44647;DHT22;56315;-33.902;151.160;2023-04-24T03:38:25;25.50;99.90
44647;DHT22;56315;-33.902;151.160;2023-04-24T03:40:53;25.30;99.90
44647;DHT22;56315;-33.902;151.160;2023-04-24T03:43:20;25.20;99.90
44647;DHT22;56315;-33.902;151.160;2023-04-24T03:45:47;25.10;99.90
44647;DHT22;56315;-33.902;151.160;2023-04-24T03:48:15;25.00;99.90
44647;DHT22;56315;-33.902;151.160;2023-04-24T03:50:43;24.90;99.90
44647;DHT22;56315;-33.902;151.160;2023-04-24T03:53:10;24.70;99.90
44647;DHT22;56315;-33.902;151.160;2023-04-24T03:55:37;24.70;99.90
44647;DHT22;56315;-33.902;151.160;2023-04-24T03:58:04;24.70;99.90
44647;DHT22;56315;-33.902;151.160;2023-04-24T04:00:32;24.70;99.90
44647;DHT22;56315;-33.902;151.160;2023-04-24T04:03:00;24.70;99.90
44647;DHT22;56315;-33.902;151.160;2023-04-24T04:05:28;24.70;99.90
44647;DHT22;56315;-33.902;151.160;2023-04-24T04:07:55;24.60;99.90
44647;DHT22;56315;-33.902;151.160;2023-04-24T04:10:22;24.60;99.90
44647;DHT22;56315;-33.902;151.160;2023-04-24T04:12:49;24.50;99.90
44647;DHT22;56315;-33.902;151.160;2023-04-24T04:15:17;24.40;99.90
44647;DHT22;56315;-33.902;151.160;2023-04-24T04:17:44;24.40;99.90
44647;DHT22;56315;-33.902;151.160;2023-04-24T04:20:12;24.40;99.90
44647;DHT22;56315;-33.902;151.160;2023-04-24T04:22:40;24.40;99.90
44647;DHT22;56315;-33.902;151.160;2023-04-24T04:25:07;24.30;99.90
44647;DHT22;56315;-33.902;151.160;2023-04-24T04:27:34;24.30;99.90
44647;DHT22;56315;-33.902;151.160;2023-04-24T04:30:03;24.40;99.90
44647;DHT22;56315;-33.902;151.160;2023-04-24T04:32:32;24.50;99.90
44647;DHT22;56315;-33.902;151.160;2023-04-24T04:35:02;24.60;99.90
44647;DHT22;56315;-33.902;151.160;2023-04-24T04:37:31;24.60;99.90
44647;DHT22;56315;-33.902;151.160;2023-04-24T04:40:00;24.60;99.90
44647;DHT22;56315;-33.902;151.160;2023-04-24T04:42:33;24.70;99.90
44647;DHT22;56315;-33.902;151.160;2023-04-24T04:45:09;24.80;99.90
44647;DHT22;56315;-33.902;151.160;2023-04-24T04:47:37;24.90;99.90
44647;DHT22;56315;-33.902;151.160;2023-04-24T04:50:06;25.00;99.90
44647;DHT22;56315;-33.902;151.160;2023-04-24T04:52:34;25.10;99.90
44647;DHT22;56315;-33.902;151.160;2023-04-24T04:55:02;25.10;99.90
44647;DHT22;56315;-33.902;151.160;2023-04-24T04:57:29;25.00;99.90
44647;DHT22;56315;-33.902;151.160;2023-04-24T04:59:57;25.00;99.90
44647;DHT22;56315;-33.902;151.160;2023-04-24T05:02:24;24.90;99.90
44647;DHT22;56315;-33.902;151.160;2023-04-24T05:04:52;24.60;99.90
44647;DHT22;56315;-33.902;151.160;2023-04-24T05:07:19;24.30;99.90
44647;DHT22;56315;-33.902;151.160;2023-04-24T05:09:46;24.10;99.90
44647;DHT22;56315;-33.902;151.160;2023-04-24T05:12:14;24.00;99.90
44647;DHT22;56315;-33.902;151.160;2023-04-24T05:14:41;24.00;99.90
44647;DHT22;56315;-33.902;151.160;2023-04-24T05:17:08;23.80;99.90
44647;DHT22;56315;-33.902;151.160;2023-04-24T05:19:36;23.80;99.90
44647;DHT22;56315;-33.902;151.160;2023-04-24T05:22:05;23.80;99.90
44647;DHT22;56315;-33.902;151.160;2023-04-24T05:24:34;23.70;99.90
44647;DHT22;56315;-33.902;151.160;2023-04-24T05:27:04;23.60;99.90
44647;DHT22;56315;-33.902;151.160;2023-04-24T05:29:32;23.50;99.90
44647;DHT22;56315;-33.902;151.160;2023-04-24T05:32:00;23.50;99.90
44647;DHT22;56315;-33.902;151.160;2023-04-24T05:34:27;23.50;99.90
44647;DHT22;56315;-33.902;151.160;2023-04-24T05:36:54;23.40;99.90
44647;DHT22;56315;-33.902;151.160;2023-04-24T05:39:21;23.40;99.90
44647;DHT22;56315;-33.902;151.160;2023-04-24T05:41:51;23.40;99.90
44647;DHT22;56315;-33.902;151.160;2023-04-24T05:44:18;23.40;99.90
44647;DHT22;56315;-33.902;151.160;2023-04-24T05:46:46;23.20;99.90
44647;DHT22;56315;-33.902;151.160;2023-04-24T05:49:13;23.10;99.90
44647;DHT22;56315;-33.902;151.160;2023-04-24T05:51:40;23.10;99.90
44647;DHT22;56315;-33.902;151.160;2023-04-24T05:54:08;23.00;99.90
44647;DHT22;56315;-33.902;151.160;2023-04-24T05:56:35;22.90;99.90
44647;DHT22;56315;-33.902;151.160;2023-04-24T05:59:02;22.80;99.90
44647;DHT22;56315;-33.902;151.160;2023-04-24T06:01:30;22.80;99.90
44647;DHT22;56315;-33.902;151.160;2023-04-24T06:03:58;22.70;99.90
44647;DHT22;56315;-33.902;151.160;2023-04-24T06:06:25;22.60;99.90
44647;DHT22;56315;-33.902;151.160;2023-04-24T06:08:53;22.40;99.90
44647;DHT22;56315;-33.902;151.160;2023-04-24T06:11:20;22.30;99.90
44647;DHT22;56315;-33.902;151.160;2023-04-24T06:13:48;22.20;99.90
44647;DHT22;56315;-33.902;151.160;2023-04-24T06:16:16;22.20;99.90
44647;DHT22;56315;-33.902;151.160;2023-04-24T06:18:43;22.10;99.90
44647;DHT22;56315;-33.902;151.160;2023-04-24T06:21:15;22.10;99.90
44647;DHT22;56315;-33.902;151.160;2023-04-24T06:23:42;22.10;99.90
44647;DHT22;56315;-33.902;151.160;2023-04-24T06:26:09;22.00;99.90
44647;DHT22;56315;-33.902;151.160;2023-04-24T06:28:36;21.80;99.90
44647;DHT22;56315;-33.902;151.160;2023-04-24T06:31:04;21.60;99.90
44647;DHT22;56315;-33.902;151.160;2023-04-24T06:33:31;21.30;99.90
44647;DHT22;56315;-33.902;151.160;2023-04-24T06:35:58;21.10;99.90
44647;DHT22;56315;-33.902;151.160;2023-04-24T06:38:26;20.80;99.90
44647;DHT22;56315;-33.902;151.160;2023-04-24T06:40:53;20.50;99.90
44647;DHT22;56315;-33.902;151.160;2023-04-24T06:43:20;20.30;99.90
44647;DHT22;56315;-33.902;151.160;2023-04-24T06:45:47;20.20;99.90
44647;DHT22;56315;-33.902;151.160;2023-04-24T06:48:14;20.10;99.90
44647;DHT22;56315;-33.902;151.160;2023-04-24T06:50:42;20.10;99.90
44647;DHT22;56315;-33.902;151.160;2023-04-24T06:53:09;20.10;99.90
44647;DHT22;56315;-33.902;151.160;2023-04-24T06:55:37;20.10;99.90
44647;DHT22;56315;-33.902;151.160;2023-04-24T06:58:04;20.10;99.90
44647;DHT22;56315;-33.902;151.160;2023-04-24T07:00:32;20.10;99.90
44647;DHT22;56315;-33.902;151.160;2023-04-24T07:03:02;20.00;99.90
44647;DHT22;56315;-33.902;151.160;2023-04-24T07:05:37;19.90;99.90
44647;DHT22;56315;-33.902;151.160;2023-04-24T07:08:05;19.80;99.90
44647;DHT22;56315;-33.902;151.160;2023-04-24T07:10:33;19.70;99.90
44647;DHT22;56315;-33.902;151.160;2023-04-24T07:13:02;19.60;99.90
44647;DHT22;56315;-33.902;151.160;2023-04-24T07:15:29;19.50;99.90
44647;DHT22;56315;-33.902;151.160;2023-04-24T07:17:57;19.40;99.90
44647;DHT22;56315;-33.902;151.160;2023-04-24T07:20:24;19.40;99.90
44647;DHT22;56315;-33.902;151.160;2023-04-24T07:22:51;19.40;99.90
44647;DHT22;56315;-33.902;151.160;2023-04-24T07:25:20;19.40;99.90
44647;DHT22;56315;-33.902;151.160;2023-04-24T07:27:47;19.20;99.90
44647;DHT22;56315;-33.902;151.160;2023-04-24T07:30:16;19.20;99.90
44647;DHT22;56315;-33.902;151.160;2023-04-24T07:32:44;19.20;99.90
44647;DHT22;56315;-33.902;151.160;2023-04-24T07:35:11;19.20;99.90
44647;DHT22;56315;-33.902;151.160;2023-04-24T07:37:38;19.20;99.90
44647;DHT22;56315;-33.902;151.160;2023-04-24T07:40:06;19.20;99.90
44647;DHT22;56315;-33.902;151.160;2023-04-24T07:42:34;19.20;99.90
44647;DHT22;56315;-33.902;151.160;2023-04-24T07:45:02;19.10;99.90
44647;DHT22;56315;-33.902;151.160;2023-04-24T07:47:30;19.00;99.90
44647;DHT22;56315;-33.902;151.160;2023-04-24T07:49:57;19.00;99.90
44647;DHT22;56315;-33.902;151.160;2023-04-24T07:52:25;18.90;99.90
44647;DHT22;56315;-33.902;151.160;2023-04-24T07:54:52;18.90;99.90
44647;DHT22;56315;-33.902;151.160;2023-04-24T07:57:25;18.90;99.90
44647;DHT22;56315;-33.902;151.160;2023-04-24T07:59:52;18.80;99.90
44647;DHT22;56315;-33.902;151.160;2023-04-24T08:02:19;18.80;99.90
44647;DHT22;56315;-33.902;151.160;2023-04-24T08:04:48;18.80;99.90
44647;DHT22;56315;-33.902;151.160;2023-04-24T08:07:15;18.80;99.90
44647;DHT22;56315;-33.902;151.160;2023-04-24T08:09:43;18.80;99.90
44647;DHT22;56315;-33.902;151.160;2023-04-24T08:12:10;18.80;99.90
44647;DHT22;56315;-33.902;151.160;2023-04-24T08:14:37;18.70;99.90
44647;DHT22;56315;-33.902;151.160;2023-04-24T08:17:05;18.70;99.90
44647;DHT22;56315;-33.902;151.160;2023-04-24T08:19:32;18.80;99.90
44647;DHT22;56315;-33.902;151.160;2023-04-24T08:21:59;18.70;99.90
44647;DHT22;56315;-33.902;151.160;2023-04-24T08:24:27;18.70;99.90
44647;DHT22;56315;-33.902;151.160;2023-04-24T08:26:54;18.70;99.90
44647;DHT22;56315;-33.902;151.160;2023-04-24T08:29:23;18.70;99.90
44647;DHT22;56315;-33.902;151.160;2023-04-24T08:31:51;18.70;99.90
44647;DHT22;56315;-33.902;151.160;2023-04-24T08:34:21;18.70;99.90
44647;DHT22;56315;-33.902;151.160;2023-04-24T08:36:48;18.70;99.90
44647;DHT22;56315;-33.902;151.160;2023-04-24T08:39:16;18.70;99.90
44647;DHT22;56315;-33.902;151.160;2023-04-24T08:41:44;18.70;99.90
44647;DHT22;56315;-33.902;151.160;2023-04-24T08:44:13;18.70;99.90
44647;DHT22;56315;-33.902;151.160;2023-04-24T08:46:43;18.80;99.90
44647;DHT22;56315;-33.902;151.160;2023-04-24T08:49:14;18.80;99.90
44647;DHT22;56315;-33.902;151.160;2023-04-24T08:51:45;18.80;99.90
44647;DHT22;56315;-33.902;151.160;2023-04-24T08:54:17;18.90;99.90
44647;DHT22;56315;-33.902;151.160;2023-04-24T08:56:45;19.00;99.90
44647;DHT22;56315;-33.902;151.160;2023-04-24T08:59:15;19.00;99.90
44647;DHT22;56315;-33.902;151.160;2023-04-24T09:01:43;19.00;99.90
44647;DHT22;56315;-33.902;151.160;2023-04-24T09:04:13;19.00;99.90
44647;DHT22;56315;-33.902;151.160;2023-04-24T09:06:42;19.00;99.90
44647;DHT22;56315;-33.902;151.160;2023-04-24T09:09:11;19.10;99.90
44647;DHT22;56315;-33.902;151.160;2023-04-24T09:11:38;19.00;99.90
44647;DHT22;56315;-33.902;151.160;2023-04-24T09:14:07;19.00;99.90
44647;DHT22;56315;-33.902;151.160;2023-04-24T09:16:36;19.00;99.90
44647;DHT22;56315;-33.902;151.160;2023-04-24T09:19:04;19.00;99.90
44647;DHT22;56315;-33.902;151.160;2023-04-24T09:21:35;19.00;99.90
44647;DHT22;56315;-33.902;151.160;2023-04-24T09:24:05;19.10;99.90
44647;DHT22;56315;-33.902;151.160;2023-04-24T09:26:36;19.00;99.90
44647;DHT22;56315;-33.902;151.160;2023-04-24T09:29:04;19.00;99.90
44647;DHT22;56315;-33.902;151.160;2023-04-24T09:31:32;19.10;99.90
44647;DHT22;56315;-33.902;151.160;2023-04-24T09:34:08;19.10;99.90
44647;DHT22;56315;-33.902;151.160;2023-04-24T09:36:46;19.10;99.90
44647;DHT22;56315;-33.902;151.160;2023-04-24T09:39:16;19.00;99.90
44647;DHT22;56315;-33.902;151.160;2023-04-24T09:41:51;19.00;99.90
44647;DHT22;56315;-33.902;151.160;2023-04-24T09:44:21;19.10;99.90
44647;DHT22;56315;-33.902;151.160;2023-04-24T09:49:26;19.10;99.90
44647;DHT22;56315;-33.902;151.160;2023-04-24T09:52:06;19.10;99.90
44647;DHT22;56315;-33.902;151.160;2023-04-24T09:54:34;19.20;99.90
44647;DHT22;56315;-33.902;151.160;2023-04-24T09:57:03;19.10;99.90
44647;DHT22;56315;-33.902;151.160;2023-04-24T09:59:31;19.10;99.90
44647;DHT22;56315;-33.902;151.160;2023-04-24T10:02:02;19.10;99.90
44647;DHT22;56315;-33.902;151.160;2023-04-24T10:04:30;19.10;99.90
44647;DHT22;56315;-33.902;151.160;2023-04-24T10:06:58;19.10;99.90
44647;DHT22;56315;-33.902;151.160;2023-04-24T10:09:27;19.10;99.90
44647;DHT22;56315;-33.902;151.160;2023-04-24T10:11:55;19.10;99.90
44647;DHT22;56315;-33.902;151.160;2023-04-24T10:14:24;19.10;99.90
44647;DHT22;56315;-33.902;151.160;2023-04-24T10:16:54;19.10;99.90
44647;DHT22;56315;-33.902;151.160;2023-04-24T10:19:26;19.00;99.90
44647;DHT22;56315;-33.902;151.160;2023-04-24T10:21:54;19.00;99.90
44647;DHT22;56315;-33.902;151.160;2023-04-24T10:24:22;19.00;99.90
44647;DHT22;56315;-33.902;151.160;2023-04-24T10:26:49;19.00;99.90
44647;DHT22;56315;-33.902;151.160;2023-04-24T10:29:18;19.00;99.90
44647;DHT22;56315;-33.902;151.160;2023-04-24T10:31:46;19.00;99.90
44647;DHT22;56315;-33.902;151.160;2023-04-24T10:34:16;19.00;99.90
44647;DHT22;56315;-33.902;151.160;2023-04-24T10:36:52;19.00;99.90
44647;DHT22;56315;-33.902;151.160;2023-04-24T10:39:20;19.00;99.90
44647;DHT22;56315;-33.902;151.160;2023-04-24T10:41:49;18.90;99.90
44647;DHT22;56315;-33.902;151.160;2023-04-24T10:44:18;18.90;99.90
44647;DHT22;56315;-33.902;151.160;2023-04-24T10:46:46;18.90;99.90
44647;DHT22;56315;-33.902;151.160;2023-04-24T10:49:17;18.90;99.90
44647;DHT22;56315;-33.902;151.160;2023-04-24T10:51:53;18.80;99.90
44647;DHT22;56315;-33.902;151.160;2023-04-24T10:54:28;18.80;99.90
44647;DHT22;56315;-33.902;151.160;2023-04-24T10:59:51;18.80;99.90
44647;DHT22;56315;-33.902;151.160;2023-04-24T11:02:36;18.80;99.90
44647;DHT22;56315;-33.902;151.160;2023-04-24T11:05:06;18.70;99.90
44647;DHT22;56315;-33.902;151.160;2023-04-24T11:08:15;18.80;99.90
44647;DHT22;56315;-33.902;151.160;2023-04-24T11:11:03;18.80;99.90
44647;DHT22;56315;-33.902;151.160;2023-04-24T11:19:25;18.70;99.90
44647;DHT22;56315;-33.902;151.160;2023-04-24T11:27:13;18.60;99.90
44647;DHT22;56315;-33.902;151.160;2023-04-24T11:32:41;18.40;99.90
44647;DHT22;56315;-33.902;151.160;2023-04-24T11:35:22;18.30;99.90
44647;DHT22;56315;-33.902;151.160;2023-04-24T11:37:55;18.20;99.90
44647;DHT22;56315;-33.902;151.160;2023-04-24T11:40:23;18.10;99.90
44647;DHT22;56315;-33.902;151.160;2023-04-24T11:42:53;17.90;99.90
44647;DHT22;56315;-33.902;151.160;2023-04-24T11:45:28;17.80;99.90
44647;DHT22;56315;-33.902;151.160;2023-04-24T11:47:56;17.70;99.90
44647;DHT22;56315;-33.902;151.160;2023-04-24T11:50:25;17.70;99.90
44647;DHT22;56315;-33.902;151.160;2023-04-24T11:52:54;17.70;99.90
44647;DHT22;56315;-33.902;151.160;2023-04-24T11:55:23;17.50;99.90
44647;DHT22;56315;-33.902;151.160;2023-04-24T11:57:57;17.50;99.90
44647;DHT22;56315;-33.902;151.160;2023-04-24T12:00:27;17.40;99.90
44647;DHT22;56315;-33.902;151.160;2023-04-24T12:03:11;17.30;99.90
44647;DHT22;56315;-33.902;151.160;2023-04-24T12:05:39;17.30;99.90
44647;DHT22;56315;-33.902;151.160;2023-04-24T12:08:06;17.20;99.90
44647;DHT22;56315;-33.902;151.160;2023-04-24T12:10:34;17.30;99.90
44647;DHT22;56315;-33.902;151.160;2023-04-24T12:13:02;17.20;99.90
44647;DHT22;56315;-33.902;151.160;2023-04-24T12:15:30;17.20;99.90
44647;DHT22;56315;-33.902;151.160;2023-04-24T12:17:57;17.10;99.90
44647;DHT22;56315;-33.902;151.160;2023-04-24T12:20:32;17.10;99.90
44647;DHT22;56315;-33.902;151.160;2023-04-24T12:23:00;17.10;99.90
44647;DHT22;56315;-33.902;151.160;2023-04-24T12:25:30;17.00;99.90
44647;DHT22;56315;-33.902;151.160;2023-04-24T12:30:39;16.90;99.90
44647;DHT22;56315;-33.902;151.160;2023-04-24T12:33:07;16.80;99.90
44647;DHT22;56315;-33.902;151.160;2023-04-24T12:35:34;16.80;99.90
44647;DHT22;56315;-33.902;151.160;2023-04-24T12:38:13;16.80;99.90
44647;DHT22;56315;-33.902;151.160;2023-04-24T12:40:42;16.70;99.90
44647;DHT22;56315;-33.902;151.160;2023-04-24T12:43:17;16.60;99.90
44647;DHT22;56315;-33.902;151.160;2023-04-24T12:45:45;16.60;99.90
44647;DHT22;56315;-33.902;151.160;2023-04-24T12:48:12;16.50;99.90
44647;DHT22;56315;-33.902;151.160;2023-04-24T12:50:43;16.50;99.90
44647;DHT22;56315;-33.902;151.160;2023-04-24T12:53:11;16.40;99.90
44647;DHT22;56315;-33.902;151.160;2023-04-24T12:55:38;16.40;99.90
44647;DHT22;56315;-33.902;151.160;2023-04-24T12:58:07;16.40;99.90
44647;DHT22;56315;-33.902;151.160;2023-04-24T13:00:34;16.40;99.90
44647;DHT22;56315;-33.902;151.160;2023-04-24T13:03:02;16.30;99.90
44647;DHT22;56315;-33.902;151.160;2023-04-24T13:05:30;16.30;99.90
44647;DHT22;56315;-33.902;151.160;2023-04-24T13:07:58;16.20;99.90
44647;DHT22;56315;-33.902;151.160;2023-04-24T13:10:25;16.20;99.90
44647;DHT22;56315;-33.902;151.160;2023-04-24T13:12:52;16.20;99.90
44647;DHT22;56315;-33.902;151.160;2023-04-24T13:15:20;16.10;99.90
44647;DHT22;56315;-33.902;151.160;2023-04-24T13:17:47;16.10;99.90
44647;DHT22;56315;-33.902;151.160;2023-04-24T13:20:15;16.10;99.90
44647;DHT22;56315;-33.902;151.160;2023-04-24T13:22:42;16.20;99.90
44647;DHT22;56315;-33.902;151.160;2023-04-24T13:25:10;16.20;99.90
44647;DHT22;56315;-33.902;151.160;2023-04-24T13:27:40;16.20;99.90
44647;DHT22;56315;-33.902;151.160;2023-04-24T13:30:08;16.10;99.90
44647;DHT22;56315;-33.902;151.160;2023-04-24T13:32:35;16.00;99.90
44647;DHT22;56315;-33.902;151.160;2023-04-24T13:35:03;16.00;99.90
44647;DHT22;56315;-33.902;151.160;2023-04-24T13:37:31;16.00;99.90
44647;DHT22;56315;-33.902;151.160;2023-04-24T13:39:58;16.00;99.90
44647;DHT22;56315;-33.902;151.160;2023-04-24T13:42:26;15.90;99.90
44647;DHT22;56315;-33.902;151.160;2023-04-24T13:44:53;15.90;99.90
44647;DHT22;56315;-33.902;151.160;2023-04-24T13:47:21;15.90;99.90
44647;DHT22;56315;-33.902;151.160;2023-04-24T13:49:48;15.90;99.90
44647;DHT22;56315;-33.902;151.160;2023-04-24T13:52:16;15.80;99.90
44647;DHT22;56315;-33.902;151.160;2023-04-24T13:54:43;15.80;99.90
44647;DHT22;56315;-33.902;151.160;2023-04-24T13:57:11;15.80;99.90
44647;DHT22;56315;-33.902;151.160;2023-04-24T13:59:38;15.80;99.90
44647;DHT22;56315;-33.902;151.160;2023-04-24T14:02:06;15.80;99.90
44647;DHT22;56315;-33.902;151.160;2023-04-24T14:04:33;15.80;99.90
44647;DHT22;56315;-33.902;151.160;2023-04-24T14:07:01;15.80;99.90
44647;DHT22;56315;-33.902;151.160;2023-04-24T14:09:28;15.80;99.90
44647;DHT22;56315;-33.902;151.160;2023-04-24T14:11:56;15.80;99.90
44647;DHT22;56315;-33.902;151.160;2023-04-24T14:14:23;15.80;99.90
44647;DHT22;56315;-33.902;151.160;2023-04-24T14:16:51;15.80;99.90
44647;DHT22;56315;-33.902;151.160;2023-04-24T14:19:18;15.80;99.90
44647;DHT22;56315;-33.902;151.160;2023-04-24T14:21:45;15.80;99.90
44647;DHT22;56315;-33.902;151.160;2023-04-24T14:24:13;15.90;99.90
44647;DHT22;56315;-33.902;151.160;2023-04-24T14:26:40;15.90;99.90
44647;DHT22;56315;-33.902;151.160;2023-04-24T14:29:08;15.90;99.90
44647;DHT22;56315;-33.902;151.160;2023-04-24T14:31:35;15.90;99.90
44647;DHT22;56315;-33.902;151.160;2023-04-24T14:34:02;15.90;99.90
44647;DHT22;56315;-33.902;151.160;2023-04-24T14:36:30;15.90;99.90
44647;DHT22;56315;-33.902;151.160;2023-04-24T14:38:58;15.90;99.90
44647;DHT22;56315;-33.902;151.160;2023-04-24T14:41:28;15.90;99.90
44647;DHT22;56315;-33.902;151.160;2023-04-24T14:43:55;15.80;99.90
44647;DHT22;56315;-33.902;151.160;2023-04-24T14:46:23;15.70;99.90
44647;DHT22;56315;-33.902;151.160;2023-04-24T14:48:50;15.70;99.90
44647;DHT22;56315;-33.902;151.160;2023-04-24T14:51:17;15.60;99.90
44647;DHT22;56315;-33.902;151.160;2023-04-24T14:53:45;15.60;99.90
44647;DHT22;56315;-33.902;151.160;2023-04-24T14:56:14;15.60;99.90
44647;DHT22;56315;-33.902;151.160;2023-04-24T14:58:42;15.60;99.90
44647;DHT22;56315;-33.902;151.160;2023-04-24T15:01:10;15.70;99.90
44647;DHT22;56315;-33.902;151.160;2023-04-24T15:03:37;15.70;99.90
44647;DHT22;56315;-33.902;151.160;2023-04-24T15:06:05;15.70;99.90
44647;DHT22;56315;-33.902;151.160;2023-04-24T15:08:32;15.80;99.90
44647;DHT22;56315;-33.902;151.160;2023-04-24T15:11:00;15.80;99.90
44647;DHT22;56315;-33.902;151.160;2023-04-24T15:13:28;15.90;99.90
44647;DHT22;56315;-33.902;151.160;2023-04-24T15:15:55;16.00;99.90
44647;DHT22;56315;-33.902;151.160;2023-04-24T15:18:22;16.00;99.90